sensor_id;sensor_type;location;lat;lon;timestamp;pressure;altitude;pressure_sealevel;temperature;humidity
47811;BME280;33575;52.600;7.318;2023-05-10T00:00:43;100533.46;;;15.61;97.41
47811;BME280;33575;52.600;7.318;2023-05-10T00:03:14;100534.03;;;15.58;97.56
47811;BME280;33575;52.600;7.318;2023-05-10T00:05:44;100538.97;;;15.58;97.54
47811;BME280;33575;52.600;7.318;2023-05-10T00:08:14;100537.49;;;15.61;97.49
47811;BME280;33575;52.600;7.318;2023-05-10T00:10:44;100537.07;;;15.60;97.48
47811;BME280;33575;52.600;7.318;2023-05-10T00:13:15;100533.74;;;15.60;97.53
47811;BME280;33575;52.600;7.318;2023-05-10T00:15:44;100529.81;;;15.58;97.58
47811;BME280;33575;52.600;7.318;2023-05-10T00:18:15;100531.57;;;15.52;98.10
47811;BME280;33575;52.600;7.318;2023-05-10T00:20:45;100528.58;;;15.49;97.87
47811;BME280;33575;52.600;7.318;2023-05-10T00:23:15;100529.68;;;15.48;97.92
47811;BME280;33575;52.600;7.318;2023-05-10T00:25:46;100527.45;;;15.47;97.81
47811;BME280;33575;52.600;7.318;2023-05-10T00:28:16;100529.90;;;15.47;98.13
47811;BME280;33575;52.600;7.318;2023-05-10T00:30:46;100526.79;;;15.46;98.07
47811;BME280;33575;52.600;7.318;2023-05-10T00:33:17;100526.45;;;15.46;98.31
47811;BME280;33575;52.600;7.318;2023-05-10T00:35:47;100524.80;;;15.42;98.14
47811;BME280;33575;52.600;7.318;2023-05-10T00:38:17;100523.35;;;15.45;98.08
47811;BME280;33575;52.600;7.318;2023-05-10T00:40:48;100521.73;;;15.41;98.42
47811;BME280;33575;52.600;7.318;2023-05-10T00:43:18;100519.22;;;15.37;98.49
47811;BME280;33575;52.600;7.318;2023-05-10T00:45:48;100520.50;;;15.40;98.34
47811;BME280;33575;52.600;7.318;2023-05-10T00:48:19;100522.36;;;15.39;98.52
47811;BME280;33575;52.600;7.318;2023-05-10T00:50:49;100520.50;;;15.41;98.27
47811;BME280;33575;52.600;7.318;2023-05-10T00:53:19;100523.01;;;15.40;98.25
47811;BME280;33575;52.600;7.318;2023-05-10T00:55:50;100522.62;;;15.39;98.36
47811;BME280;33575;52.600;7.318;2023-05-10T00:58:20;100522.79;;;15.32;98.70
47811;BME280;33575;52.600;7.318;2023-05-10T01:00:51;100525.36;;;15.23;99.05
47811;BME280;33575;52.600;7.318;2023-05-10T01:03:21;100527.25;;;15.02;99.60
47811;BME280;33575;52.600;7.318;2023-05-10T01:05:51;100528.92;;;14.78;98.97
47811;BME280;33575;52.600;7.318;2023-05-10T01:08:21;100526.58;;;14.30;100.00
47811;BME280;33575;52.600;7.318;2023-05-10T01:10:52;100528.85;;;14.23;100.00
47811;BME280;33575;52.600;7.318;2023-05-10T01:13:30;100528.47;;;14.23;100.00
47811;BME280;33575;52.600;7.318;2023-05-10T01:15:53;100526.06;;;14.13;100.00
47811;BME280;33575;52.600;7.318;2023-05-10T01:18:23;100526.58;;;14.01;100.00
47811;BME280;33575;52.600;7.318;2023-05-10T01:21:01;100524.33;;;14.00;100.00
47811;BME280;33575;52.600;7.318;2023-05-10T01:23:36;100527.62;;;13.91;100.00
47811;BME280;33575;52.600;7.318;2023-05-10T01:26:12;100522.75;;;13.81;100.00
47811;BME280;33575;52.600;7.318;2023-05-10T01:33:27;100523.48;;;13.87;100.00
47811;BME280;33575;52.600;7.318;2023-05-10T01:36:01;100522.75;;;13.72;100.00
47811;BME280;33575;52.600;7.318;2023-05-10T01:38:32;100528.95;;;13.89;100.00
47811;BME280;33575;52.600;7.318;2023-05-10T01:41:03;100528.58;;;13.91;100.00
47811;BME280;33575;52.600;7.318;2023-05-10T01:43:32;100527.45;;;13.98;100.00
47811;BME280;33575;52.600;7.318;2023-05-10T01:46:02;100526.79;;;14.02;100.00
47811;BME280;33575;52.600;7.318;2023-05-10T01:48:28;100526.69;;;14.05;100.00
47811;BME280;33575;52.600;7.318;2023-05-10T01:50:58;100525.37;;;14.07;100.00
47811;BME280;33575;52.600;7.318;2023-05-10T01:53:29;100526.46;;;14.09;100.00
47811;BME280;33575;52.600;7.318;2023-05-10T01:56:00;100529.01;;;13.98;100.00
47811;BME280;33575;52.600;7.318;2023-05-10T01:58:32;100529.55;;;13.98;100.00
47811;BME280;33575;52.600;7.318;2023-05-10T02:01:02;100525.66;;;13.85;100.00
47811;BME280;33575;52.600;7.318;2023-05-10T02:03:31;100524.71;;;13.85;100.00
47811;BME280;33575;52.600;7.318;2023-05-10T02:06:01;100526.34;;;13.88;100.00
47811;BME280;33575;52.600;7.318;2023-05-10T02:08:31;100526.77;;;13.82;100.00
47811;BME280;33575;52.600;7.318;2023-05-10T02:11:02;100525.17;;;13.88;100.00
47811;BME280;33575;52.600;7.318;2023-05-10T02:13:33;100527.54;;;13.86;100.00
47811;BME280;33575;52.600;7.318;2023-05-10T02:16:03;100530.74;;;13.86;100.00
47811;BME280;33575;52.600;7.318;2023-05-10T02:18:33;100530.21;;;13.91;100.00
47811;BME280;33575;52.600;7.318;2023-05-10T02:21:03;100533.95;;;13.92;100.00
47811;BME280;33575;52.600;7.318;2023-05-10T02:23:34;100530.79;;;13.89;100.00
47811;BME280;33575;52.600;7.318;2023-05-10T02:26:05;100535.50;;;13.86;100.00
47811;BME280;33575;52.600;7.318;2023-05-10T02:28:35;100534.47;;;13.89;100.00
47811;BME280;33575;52.600;7.318;2023-05-10T02:31:05;100537.68;;;13.90;100.00
47811;BME280;33575;52.600;7.318;2023-05-10T02:33:35;100538.55;;;13.94;100.00
47811;BME280;33575;52.600;7.318;2023-05-10T02:36:07;100538.46;;;13.95;100.00
47811;BME280;33575;52.600;7.318;2023-05-10T02:38:36;100534.99;;;13.93;100.00
47811;BME280;33575;52.600;7.318;2023-05-10T02:41:06;100537.68;;;13.88;100.00
47811;BME280;33575;52.600;7.318;2023-05-10T02:43:37;100537.67;;;13.94;100.00
47811;BME280;33575;52.600;7.318;2023-05-10T02:46:06;100535.53;;;14.03;100.00
47811;BME280;33575;52.600;7.318;2023-05-10T02:48:36;100537.84;;;14.08;100.00
47811;BME280;33575;52.600;7.318;2023-05-10T02:51:07;100539.72;;;13.99;100.00
47811;BME280;33575;52.600;7.318;2023-05-10T02:53:38;100539.30;;;13.96;100.00
47811;BME280;33575;52.600;7.318;2023-05-10T02:56:11;100541.09;;;13.98;100.00
47811;BME280;33575;52.600;7.318;2023-05-10T02:58:37;100542.19;;;14.03;100.00
47811;BME280;33575;52.600;7.318;2023-05-10T03:01:07;100540.02;;;14.06;99.97
47811;BME280;33575;52.600;7.318;2023-05-10T03:03:38;100544.56;;;14.09;99.85
47811;BME280;33575;52.600;7.318;2023-05-10T03:06:08;100541.93;;;14.04;100.00
47811;BME280;33575;52.600;7.318;2023-05-10T03:08:38;100543.37;;;14.03;100.00
47811;BME280;33575;52.600;7.318;2023-05-10T03:11:20;100542.90;;;14.08;99.99
47811;BME280;33575;52.600;7.318;2023-05-10T03:13:45;100545.77;;;14.14;99.69
47811;BME280;33575;52.600;7.318;2023-05-10T03:16:12;100544.47;;;14.10;100.00
47811;BME280;33575;52.600;7.318;2023-05-10T03:18:44;100543.08;;;14.11;99.64
47811;BME280;33575;52.600;7.318;2023-05-10T03:21:11;100545.29;;;14.00;100.00
47811;BME280;33575;52.600;7.318;2023-05-10T03:23:43;100545.94;;;14.02;99.98
47811;BME280;33575;52.600;7.318;2023-05-10T03:26:10;100543.90;;;14.00;100.00
47811;BME280;33575;52.600;7.318;2023-05-10T03:28:40;100546.32;;;14.04;99.89
47811;BME280;33575;52.600;7.318;2023-05-10T03:31:10;100550.60;;;14.08;100.00
47811;BME280;33575;52.600;7.318;2023-05-10T03:33:46;100551.35;;;14.11;99.83
47811;BME280;33575;52.600;7.318;2023-05-10T03:36:10;100549.61;;;14.13;99.71
47811;BME280;33575;52.600;7.318;2023-05-10T03:38:41;100551.05;;;14.07;99.45
47811;BME280;33575;52.600;7.318;2023-05-10T03:41:11;100552.05;;;14.06;99.43
47811;BME280;33575;52.600;7.318;2023-05-10T03:43:41;100554.00;;;14.03;99.70
47811;BME280;33575;52.600;7.318;2023-05-10T03:46:12;100555.30;;;14.06;99.76
47811;BME280;33575;52.600;7.318;2023-05-10T03:48:42;100559.51;;;14.06;99.28
47811;BME280;33575;52.600;7.318;2023-05-10T03:51:12;100562.70;;;14.05;99.36
47811;BME280;33575;52.600;7.318;2023-05-10T03:53:43;100559.86;;;14.00;99.93
47811;BME280;33575;52.600;7.318;2023-05-10T03:56:13;100559.50;;;13.94;100.00
47811;BME280;33575;52.600;7.318;2023-05-10T03:58:44;100558.08;;;13.90;100.00
47811;BME280;33575;52.600;7.318;2023-05-10T04:01:14;100557.42;;;13.92;100.00
47811;BME280;33575;52.600;7.318;2023-05-10T04:03:44;100557.03;;;13.95;100.00
47811;BME280;33575;52.600;7.318;2023-05-10T04:06:15;100557.42;;;13.98;99.86
47811;BME280;33575;52.600;7.318;2023-05-10T04:08:45;100558.88;;;14.00;99.81
47811;BME280;33575;52.600;7.318;2023-05-10T04:11:15;100559.74;;;13.94;99.81
47811;BME280;33575;52.600;7.318;2023-05-10T04:13:46;100564.60;;;13.95;99.93
47811;BME280;33575;52.600;7.318;2023-05-10T04:16:17;100572.12;;;13.94;99.79
47811;BME280;33575;52.600;7.318;2023-05-10T04:18:47;100572.37;;;13.88;100.00
47811;BME280;33575;52.600;7.318;2023-05-10T04:21:17;100573.33;;;13.87;100.00
47811;BME280;33575;52.600;7.318;2023-05-10T04:23:47;100573.50;;;13.87;100.00
47811;BME280;33575;52.600;7.318;2023-05-10T04:26:18;100574.44;;;13.91;100.00
47811;BME280;33575;52.600;7.318;2023-05-10T04:28:48;100581.36;;;13.96;100.00
47811;BME280;33575;52.600;7.318;2023-05-10T04:31:18;100580.36;;;13.90;100.00
47811;BME280;33575;52.600;7.318;2023-05-10T04:33:48;100580.51;;;13.94;100.00
47811;BME280;33575;52.600;7.318;2023-05-10T04:36:19;100577.20;;;13.99;100.00
47811;BME280;33575;52.600;7.318;2023-05-10T04:38:49;100581.12;;;13.99;99.78
47811;BME280;33575;52.600;7.318;2023-05-10T04:41:19;100582.98;;;13.90;100.00
47811;BME280;33575;52.600;7.318;2023-05-10T04:43:49;100585.63;;;13.89;100.00
47811;BME280;33575;52.600;7.318;2023-05-10T04:46:20;100587.37;;;13.87;100.00
47811;BME280;33575;52.600;7.318;2023-05-10T04:48:50;100589.55;;;13.84;100.00
47811;BME280;33575;52.600;7.318;2023-05-10T04:51:20;100594.01;;;13.83;100.00
47811;BME280;33575;52.600;7.318;2023-05-10T04:53:56;100595.77;;;13.80;100.00
47811;BME280;33575;52.600;7.318;2023-05-10T04:56:21;100600.27;;;13.81;100.00
47811;BME280;33575;52.600;7.318;2023-05-10T04:58:52;100601.42;;;13.62;100.00
47811;BME280;33575;52.600;7.318;2023-05-10T05:01:22;100597.82;;;13.61;100.00
47811;BME280;33575;52.600;7.318;2023-05-10T05:03:52;100599.56;;;13.66;100.00
47811;BME280;33575;52.600;7.318;2023-05-10T05:06:23;100600.20;;;13.63;100.00
47811;BME280;33575;52.600;7.318;2023-05-10T05:08:53;100603.41;;;13.65;100.00
47811;BME280;33575;52.600;7.318;2023-05-10T05:11:24;100605.64;;;13.74;100.00
47811;BME280;33575;52.600;7.318;2023-05-10T05:13:54;100610.86;;;13.69;100.00
47811;BME280;33575;52.600;7.318;2023-05-10T05:16:25;100612.36;;;13.64;100.00
47811;BME280;33575;52.600;7.318;2023-05-10T05:18:55;100615.12;;;13.70;100.00
47811;BME280;33575;52.600;7.318;2023-05-10T05:21:25;100617.56;;;13.64;100.00
47811;BME280;33575;52.600;7.318;2023-05-10T05:23:56;100618.07;;;13.67;100.00
47811;BME280;33575;52.600;7.318;2023-05-10T05:26:26;100623.50;;;13.55;100.00
47811;BME280;33575;52.600;7.318;2023-05-10T05:28:56;100627.06;;;13.56;100.00
47811;BME280;33575;52.600;7.318;2023-05-10T05:31:27;100625.67;;;13.45;100.00
47811;BME280;33575;52.600;7.318;2023-05-10T05:33:57;100627.80;;;13.54;100.00
47811;BME280;33575;52.600;7.318;2023-05-10T05:36:28;100629.65;;;13.58;100.00
47811;BME280;33575;52.600;7.318;2023-05-10T05:38:58;100633.72;;;13.55;100.00
47811;BME280;33575;52.600;7.318;2023-05-10T05:41:28;100632.47;;;13.65;100.00
47811;BME280;33575;52.600;7.318;2023-05-10T05:43:58;100631.96;;;13.68;100.00
47811;BME280;33575;52.600;7.318;2023-05-10T05:46:29;100629.78;;;13.71;100.00
47811;BME280;33575;52.600;7.318;2023-05-10T05:48:59;100636.86;;;13.66;100.00
47811;BME280;33575;52.600;7.318;2023-05-10T05:51:30;100640.41;;;13.62;100.00
47811;BME280;33575;52.600;7.318;2023-05-10T05:54:00;100640.61;;;13.68;100.00
47811;BME280;33575;52.600;7.318;2023-05-10T05:56:30;100644.31;;;13.76;100.00
47811;BME280;33575;52.600;7.318;2023-05-10T05:59:00;100644.91;;;13.81;100.00
47811;BME280;33575;52.600;7.318;2023-05-10T06:01:31;100648.71;;;13.82;100.00
47811;BME280;33575;52.600;7.318;2023-05-10T06:04:01;100648.34;;;13.89;100.00
47811;BME280;33575;52.600;7.318;2023-05-10T06:06:31;100650.10;;;13.94;100.00
47811;BME280;33575;52.600;7.318;2023-05-10T06:09:02;100649.08;;;14.00;100.00
47811;BME280;33575;52.600;7.318;2023-05-10T06:11:32;100649.09;;;14.08;100.00
47811;BME280;33575;52.600;7.318;2023-05-10T06:14:03;100657.53;;;14.10;100.00
47811;BME280;33575;52.600;7.318;2023-05-10T06:16:33;100657.37;;;14.13;100.00
47811;BME280;33575;52.600;7.318;2023-05-10T06:19:03;100658.28;;;14.17;100.00
47811;BME280;33575;52.600;7.318;2023-05-10T06:21:33;100661.46;;;14.21;100.00
47811;BME280;33575;52.600;7.318;2023-05-10T06:24:05;100663.56;;;14.14;100.00
47811;BME280;33575;52.600;7.318;2023-05-10T06:26:34;100662.56;;;14.21;100.00
47811;BME280;33575;52.600;7.318;2023-05-10T06:29:05;100662.38;;;14.25;100.00
47811;BME280;33575;52.600;7.318;2023-05-10T06:31:35;100660.26;;;14.25;100.00
47811;BME280;33575;52.600;7.318;2023-05-10T06:34:05;100659.27;;;14.26;100.00
47811;BME280;33575;52.600;7.318;2023-05-10T06:36:35;100655.39;;;14.24;100.00
47811;BME280;33575;52.600;7.318;2023-05-10T06:39:06;100656.48;;;14.31;100.00
47811;BME280;33575;52.600;7.318;2023-05-10T06:41:36;100659.67;;;14.32;100.00
47811;BME280;33575;52.600;7.318;2023-05-10T06:44:06;100661.61;;;14.39;99.84
47811;BME280;33575;52.600;7.318;2023-05-10T06:46:37;100659.59;;;14.31;99.91
47811;BME280;33575;52.600;7.318;2023-05-10T06:49:08;100664.19;;;14.31;100.00
47811;BME280;33575;52.600;7.318;2023-05-10T06:51:38;100672.01;;;14.35;100.00
47811;BME280;33575;52.600;7.318;2023-05-10T06:54:08;100678.09;;;14.39;100.00
47811;BME280;33575;52.600;7.318;2023-05-10T06:56:39;100680.54;;;14.45;100.00
47811;BME280;33575;52.600;7.318;2023-05-10T06:59:09;100678.68;;;14.52;100.00
47811;BME280;33575;52.600;7.318;2023-05-10T07:01:40;100678.44;;;14.42;99.99
47811;BME280;33575;52.600;7.318;2023-05-10T07:04:10;100679.26;;;14.38;100.00
47811;BME280;33575;52.600;7.318;2023-05-10T07:06:41;100679.70;;;14.33;100.00
47811;BME280;33575;52.600;7.318;2023-05-10T07:09:11;100685.03;;;14.36;100.00
47811;BME280;33575;52.600;7.318;2023-05-10T07:11:41;100686.08;;;14.38;100.00
47811;BME280;33575;52.600;7.318;2023-05-10T07:14:12;100686.78;;;14.41;99.88
47811;BME280;33575;52.600;7.318;2023-05-10T07:16:42;100688.51;;;14.37;99.68
47811;BME280;33575;52.600;7.318;2023-05-10T07:19:12;100693.97;;;14.38;100.00
47811;BME280;33575;52.600;7.318;2023-05-10T07:21:43;100695.40;;;14.44;100.00
47811;BME280;33575;52.600;7.318;2023-05-10T07:24:13;100700.28;;;14.50;99.87
47811;BME280;33575;52.600;7.318;2023-05-10T07:26:43;100697.19;;;14.53;99.91
47811;BME280;33575;52.600;7.318;2023-05-10T07:29:14;100693.33;;;14.50;100.00
47811;BME280;33575;52.600;7.318;2023-05-10T07:31:44;100696.74;;;14.39;100.00
47811;BME280;33575;52.600;7.318;2023-05-10T07:34:15;100691.41;;;14.39;100.00
47811;BME280;33575;52.600;7.318;2023-05-10T07:36:45;100693.99;;;14.28;100.00
47811;BME280;33575;52.600;7.318;2023-05-10T07:39:20;100696.32;;;14.32;100.00
47811;BME280;33575;52.600;7.318;2023-05-10T07:41:46;100692.67;;;14.43;100.00
47811;BME280;33575;52.600;7.318;2023-05-10T07:44:16;100687.35;;;14.58;100.00
47811;BME280;33575;52.600;7.318;2023-05-10T07:46:46;100688.48;;;14.65;100.00
47811;BME280;33575;52.600;7.318;2023-05-10T07:49:17;100689.39;;;14.57;100.00
47811;BME280;33575;52.600;7.318;2023-05-10T07:51:47;100693.79;;;14.74;100.00
47811;BME280;33575;52.600;7.318;2023-05-10T07:54:17;100697.14;;;14.65;99.86
47811;BME280;33575;52.600;7.318;2023-05-10T07:56:48;100703.58;;;14.70;99.43
47811;BME280;33575;52.600;7.318;2023-05-10T07:59:18;100709.55;;;14.68;99.65
47811;BME280;33575;52.600;7.318;2023-05-10T08:01:49;100714.31;;;14.77;100.00
47811;BME280;33575;52.600;7.318;2023-05-10T08:04:19;100717.91;;;14.74;99.44
47811;BME280;33575;52.600;7.318;2023-05-10T08:06:49;100719.88;;;14.76;99.12
47811;BME280;33575;52.600;7.318;2023-05-10T08:09:20;100720.79;;;14.79;99.64
47811;BME280;33575;52.600;7.318;2023-05-10T08:11:50;100724.67;;;14.77;99.16
47811;BME280;33575;52.600;7.318;2023-05-10T08:14:21;100724.91;;;14.71;99.57
47811;BME280;33575;52.600;7.318;2023-05-10T08:16:51;100726.55;;;14.79;98.51
47811;BME280;33575;52.600;7.318;2023-05-10T08:19:21;100724.89;;;14.50;98.53
47811;BME280;33575;52.600;7.318;2023-05-10T08:21:52;100721.31;;;14.65;99.38
47811;BME280;33575;52.600;7.318;2023-05-10T08:24:22;100730.68;;;14.73;98.90
47811;BME280;33575;52.600;7.318;2023-05-10T08:26:52;100736.54;;;14.71;99.77
47811;BME280;33575;52.600;7.318;2023-05-10T08:29:23;100738.70;;;14.75;99.84
47811;BME280;33575;52.600;7.318;2023-05-10T08:31:53;100738.66;;;14.79;99.22
47811;BME280;33575;52.600;7.318;2023-05-10T08:34:24;100744.23;;;14.86;99.73
47811;BME280;33575;52.600;7.318;2023-05-10T08:36:54;100745.44;;;14.92;98.39
47811;BME280;33575;52.600;7.318;2023-05-10T08:39:29;100746.20;;;14.92;98.26
47811;BME280;33575;52.600;7.318;2023-05-10T08:41:58;100746.66;;;14.72;97.77
47811;BME280;33575;52.600;7.318;2023-05-10T08:44:25;100751.82;;;14.81;96.91
47811;BME280;33575;52.600;7.318;2023-05-10T08:46:56;100752.16;;;14.92;98.15
47811;BME280;33575;52.600;7.318;2023-05-10T08:49:27;100755.95;;;14.86;97.47
47811;BME280;33575;52.600;7.318;2023-05-10T08:51:57;100757.91;;;14.62;98.69
47811;BME280;33575;52.600;7.318;2023-05-10T08:54:26;100758.64;;;14.82;97.75
47811;BME280;33575;52.600;7.318;2023-05-10T08:56:56;100761.62;;;14.90;97.92
47811;BME280;33575;52.600;7.318;2023-05-10T08:59:27;100764.19;;;14.91;97.99
47811;BME280;33575;52.600;7.318;2023-05-10T09:01:57;100770.02;;;14.88;97.94
47811;BME280;33575;52.600;7.318;2023-05-10T09:04:28;100772.31;;;14.97;97.30
47811;BME280;33575;52.600;7.318;2023-05-10T09:06:58;100779.02;;;14.99;99.28
47811;BME280;33575;52.600;7.318;2023-05-10T09:09:29;100779.23;;;15.09;96.84
47811;BME280;33575;52.600;7.318;2023-05-10T09:11:59;100780.95;;;15.24;97.63
47811;BME280;33575;52.600;7.318;2023-05-10T09:14:29;100781.54;;;15.26;98.22
47811;BME280;33575;52.600;7.318;2023-05-10T09:16:59;100785.49;;;15.32;97.36
47811;BME280;33575;52.600;7.318;2023-05-10T09:19:29;100783.99;;;15.28;95.56
47811;BME280;33575;52.600;7.318;2023-05-10T09:22:00;100788.26;;;15.28;96.06
47811;BME280;33575;52.600;7.318;2023-05-10T09:24:30;100783.22;;;15.39;95.66
47811;BME280;33575;52.600;7.318;2023-05-10T09:27:01;100784.78;;;15.45;95.52
47811;BME280;33575;52.600;7.318;2023-05-10T09:29:39;100791.40;;;15.48;94.42
47811;BME280;33575;52.600;7.318;2023-05-10T09:32:01;100791.80;;;15.58;94.47
47811;BME280;33575;52.600;7.318;2023-05-10T09:34:32;100793.07;;;15.51;93.70
47811;BME280;33575;52.600;7.318;2023-05-10T09:37:02;100795.00;;;15.49;93.49
47811;BME280;33575;52.600;7.318;2023-05-10T09:39:33;100800.68;;;15.49;93.31
47811;BME280;33575;52.600;7.318;2023-05-10T09:42:04;100805.87;;;15.49;93.56
47811;BME280;33575;52.600;7.318;2023-05-10T09:44:33;100808.70;;;15.48;92.92
47811;BME280;33575;52.600;7.318;2023-05-10T09:47:03;100809.41;;;15.43;92.58
47811;BME280;33575;52.600;7.318;2023-05-10T09:49:33;100810.08;;;15.11;91.67
47811;BME280;33575;52.600;7.318;2023-05-10T09:52:05;100814.57;;;15.24;92.21
47811;BME280;33575;52.600;7.318;2023-05-10T09:54:34;100814.77;;;15.24;92.78
47811;BME280;33575;52.600;7.318;2023-05-10T09:57:04;100820.45;;;15.12;93.13
47811;BME280;33575;52.600;7.318;2023-05-10T09:59:35;100822.84;;;15.20;93.24
47811;BME280;33575;52.600;7.318;2023-05-10T10:02:06;100822.39;;;15.22;93.73
47811;BME280;33575;52.600;7.318;2023-05-10T10:04:39;100821.66;;;15.29;92.56
47811;BME280;33575;52.600;7.318;2023-05-10T10:07:06;100825.80;;;15.19;92.74
47811;BME280;33575;52.600;7.318;2023-05-10T10:09:36;100826.02;;;15.02;93.71
47811;BME280;33575;52.600;7.318;2023-05-10T10:12:06;100828.84;;;15.02;92.68
47811;BME280;33575;52.600;7.318;2023-05-10T10:14:37;100828.26;;;15.06;93.56
47811;BME280;33575;52.600;7.318;2023-05-10T10:17:10;100831.82;;;15.14;93.41
47811;BME280;33575;52.600;7.318;2023-05-10T10:19:39;100831.07;;;15.29;93.04
47811;BME280;33575;52.600;7.318;2023-05-10T10:22:08;100835.91;;;15.30;93.45
47811;BME280;33575;52.600;7.318;2023-05-10T10:24:38;100836.92;;;15.36;94.65
47811;BME280;33575;52.600;7.318;2023-05-10T10:29:46;100841.08;;;15.47;92.85
47811;BME280;33575;52.600;7.318;2023-05-10T10:32:19;100845.87;;;15.39;92.88
47811;BME280;33575;52.600;7.318;2023-05-10T10:34:40;100845.74;;;15.21;92.14
47811;BME280;33575;52.600;7.318;2023-05-10T10:37:10;100845.88;;;15.15;93.86
47811;BME280;33575;52.600;7.318;2023-05-10T10:39:41;100845.62;;;15.14;93.21
47811;BME280;33575;52.600;7.318;2023-05-10T10:42:11;100850.73;;;15.26;93.78
47811;BME280;33575;52.600;7.318;2023-05-10T10:44:41;100845.07;;;15.25;93.22
47811;BME280;33575;52.600;7.318;2023-05-10T10:49:47;100848.04;;;15.26;93.86
47811;BME280;33575;52.600;7.318;2023-05-10T10:52:14;100848.24;;;15.30;93.35
47811;BME280;33575;52.600;7.318;2023-05-10T10:54:49;100844.14;;;15.36;93.35
47811;BME280;33575;52.600;7.318;2023-05-10T10:57:14;100848.31;;;15.32;92.40
47811;BME280;33575;52.600;7.318;2023-05-10T10:59:43;100852.93;;;15.31;93.02
47811;BME280;33575;52.600;7.318;2023-05-10T11:04:43;100854.41;;;15.25;93.65
47811;BME280;33575;52.600;7.318;2023-05-10T11:07:17;100856.33;;;15.34;93.08
47811;BME280;33575;52.600;7.318;2023-05-10T11:09:44;100861.89;;;15.25;94.03
47811;BME280;33575;52.600;7.318;2023-05-10T11:12:14;100864.06;;;15.17;91.93
47811;BME280;33575;52.600;7.318;2023-05-10T11:14:49;100864.60;;;15.09;92.34
47811;BME280;33575;52.600;7.318;2023-05-10T11:17:23;100868.45;;;15.16;92.63
47811;BME280;33575;52.600;7.318;2023-05-10T11:22:16;100874.24;;;15.25;93.06
47811;BME280;33575;52.600;7.318;2023-05-10T11:24:56;100883.38;;;15.33;93.65
47811;BME280;33575;52.600;7.318;2023-05-10T11:27:16;100879.85;;;15.39;92.69
47811;BME280;33575;52.600;7.318;2023-05-10T11:29:46;100885.58;;;15.47;92.59
47811;BME280;33575;52.600;7.318;2023-05-10T11:32:17;100886.17;;;15.58;92.79
47811;BME280;33575;52.600;7.318;2023-05-10T11:34:47;100886.97;;;15.60;92.78
47811;BME280;33575;52.600;7.318;2023-05-10T11:37:18;100891.85;;;15.48;91.66
47811;BME280;33575;52.600;7.318;2023-05-10T11:39:47;100885.89;;;15.53;91.66
47811;BME280;33575;52.600;7.318;2023-05-10T11:42:17;100886.90;;;15.58;91.44
47811;BME280;33575;52.600;7.318;2023-05-10T11:44:48;100889.62;;;15.54;92.44
47811;BME280;33575;52.600;7.318;2023-05-10T11:47:18;100890.92;;;15.67;91.79
47811;BME280;33575;52.600;7.318;2023-05-10T11:49:49;100892.83;;;15.78;92.42
47811;BME280;33575;52.600;7.318;2023-05-10T11:52:19;100893.26;;;15.94;91.57
47811;BME280;33575;52.600;7.318;2023-05-10T11:54:51;100895.30;;;15.95;90.61
47811;BME280;33575;52.600;7.318;2023-05-10T11:57:21;100898.96;;;16.04;88.64
47811;BME280;33575;52.600;7.318;2023-05-10T11:59:53;100900.55;;;16.00;89.42
47811;BME280;33575;52.600;7.318;2023-05-10T12:02:20;100899.81;;;16.10;89.20
47811;BME280;33575;52.600;7.318;2023-05-10T12:04:51;100904.85;;;16.08;90.30
47811;BME280;33575;52.600;7.318;2023-05-10T12:07:21;100908.64;;;15.97;88.18
47811;BME280;33575;52.600;7.318;2023-05-10T12:12:22;100919.61;;;15.91;89.26
47811;BME280;33575;52.600;7.318;2023-05-10T12:14:52;100919.53;;;15.69;88.10
47811;BME280;33575;52.600;7.318;2023-05-10T12:17:27;100925.66;;;15.79;89.12
47811;BME280;33575;52.600;7.318;2023-05-10T12:19:53;100926.83;;;15.81;88.55
47811;BME280;33575;52.600;7.318;2023-05-10T12:22:23;100925.18;;;15.60;87.44
47811;BME280;33575;52.600;7.318;2023-05-10T12:24:53;100922.85;;;15.65;87.45
47811;BME280;33575;52.600;7.318;2023-05-10T12:27:24;100930.09;;;15.75;88.80
47811;BME280;33575;52.600;7.318;2023-05-10T12:29:54;100928.58;;;15.80;87.48
47811;BME280;33575;52.600;7.318;2023-05-10T12:34:57;100935.25;;;15.94;88.76
47811;BME280;33575;52.600;7.318;2023-05-10T12:37:27;100937.81;;;15.87;89.19
47811;BME280;33575;52.600;7.318;2023-05-10T12:39:56;100937.07;;;15.96;88.31
47811;BME280;33575;52.600;7.318;2023-05-10T12:42:26;100941.79;;;16.04;88.30
47811;BME280;33575;52.600;7.318;2023-05-10T12:44:56;100941.52;;;16.15;89.50
47811;BME280;33575;52.600;7.318;2023-05-10T12:47:26;100935.19;;;16.20;88.56
47811;BME280;33575;52.600;7.318;2023-05-10T12:49:57;100941.65;;;16.30;88.45
47811;BME280;33575;52.600;7.318;2023-05-10T12:52:27;100944.23;;;16.35;88.26
47811;BME280;33575;52.600;7.318;2023-05-10T12:54:58;100944.63;;;16.35;88.44
47811;BME280;33575;52.600;7.318;2023-05-10T12:57:28;100941.47;;;16.50;89.39
47811;BME280;33575;52.600;7.318;2023-05-10T12:59:58;100941.06;;;16.48;87.66
47811;BME280;33575;52.600;7.318;2023-05-10T13:02:28;100952.68;;;16.52;89.96
47811;BME280;33575;52.600;7.318;2023-05-10T13:04:59;100952.34;;;16.38;88.67
47811;BME280;33575;52.600;7.318;2023-05-10T13:07:29;100951.72;;;16.40;89.38
47811;BME280;33575;52.600;7.318;2023-05-10T13:09:59;100956.76;;;16.55;88.35
47811;BME280;33575;52.600;7.318;2023-05-10T13:12:30;100957.24;;;16.50;87.93
47811;BME280;33575;52.600;7.318;2023-05-10T13:15:00;100955.40;;;16.35;87.30
47811;BME280;33575;52.600;7.318;2023-05-10T13:17:32;100958.51;;;16.50;87.83
47811;BME280;33575;52.600;7.318;2023-05-10T13:20:01;100956.85;;;16.42;87.74